Nearby METAR Reports

 

EGQL - Leuchars Raf, United Kingdom
Distance from station: SW 17km
Updated: 23/04/2019 03:05
Haze, Clear
Haze, Clear
 Wind from E
Wind: E 30 km/h
Temperature: 11°C
Dew Point: 8°C
Humidity: 82%
Barometer: 1004 hPa
Summary: Haze
Clouds: Clear
Visibility: 8 km
2019/04/23 10:05 EGQL 231005Z 09016KT 8000 HZ SKC 11/08 Q1004 BLU
EGPN - Dundee/Riverside, United Kingdom
Distance from station: WSW 20km
Updated: 23/04/2019 03:20
Few Clouds
Few Clouds
 Wind from E
Wind: E 31 km/h
Temperature: 12°C
Dew Point: 8°C
Humidity: 77%
Barometer: 1004 hPa
Clouds: Few Clouds
Visibility: 9 km
Cloud details: Few Clouds 457 m
2019/04/23 10:20 EGPN 231020Z 09017KT 9000 FEW015 12/08 Q1004
 
EGPH - Edinburgh Airpor, United Kingdom
Distance from station: SSW 74km
Updated: 23/04/2019 03:20
Clear
Clear
 Wind from NE
Wind: NE 22 km/h
Temperature: 11°C
Dew Point: 9°C
Humidity: 88%
Barometer: 1002 hPa
Summary: Clear
Visibility: greater than 10 km
2019/04/23 10:20 EGPH 231020Z 05012KT CAVOK 11/09 Q1002
EGPD - Aberdeen/Dyce, United Kingdom
Distance from station: NNE 82km
Updated: 23/04/2019 03:20
Clear
Clear
 Wind from SE
Wind: SE 24 km/h
Temperature: 12°C
Dew Point: 6°C
Humidity: 67%
Barometer: 1006 hPa
Clouds: Clear
Visibility: 10 km
2019/04/23 10:20 EGPD 231020Z AUTO 14013KT 9999 NCD 12/06 Q1006 NOSIG